Time;durP1;ratioP1;P1;durP2;ratioP2;P2;SDS_P1;SDS_P2;PMS_P1;PMS_P2;Temp;Humidity;BMP_temperature;BMP_pressure;BME280_temperature;BME280_humidity;BME280_pressure;Samples;Min_cycle;Max_cycle;Signal;HPM_P1;HPM_P2
2021/07/13 00:00:30;;;;;;;3.20;3.00;;;;;;;;;;467950;254;27513;-74
2021/07/13 00:02:30;;;;;;;3.07;2.77;;;;;;;;;;467925;254;27966;-74
2021/07/13 00:04:33;;;;;;;3.40;3.00;;;;;;;;;;467961;254;27572;-74
2021/07/13 00:06:35;;;;;;;2.90;2.70;;;;;;;;;;467941;254;28023;-75
2021/07/13 00:08:38;;;;;;;2.80;2.60;;;;;;;;;;467936;254;27558;-75
2021/07/13 00:10:39;;;;;;;3.20;2.90;;;;;;;;;;467898;254;28105;-75
2021/07/13 00:12:41;;;;;;;3.43;3.23;;;;;;;;;;467925;254;27457;-74
2021/07/13 00:14:43;;;;;;;3.43;2.87;;;;;;;;;;467970;254;28071;-74
2021/07/13 00:16:45;;;;;;;3.40;3.10;;;;;;;;;;467954;253;27529;-74
2021/07/13 00:18:47;;;;;;;2.97;2.77;;;;;;;;;;467947;254;27991;-74
2021/07/13 00:20:49;;;;;;;3.37;3.13;;;;;;;;;;467969;254;27545;-74
2021/07/13 00:22:52;;;;;;;2.90;2.70;;;;;;;;;;467952;254;27908;-74
2021/07/13 00:24:54;;;;;;;3.10;2.80;;;;;;;;;;467968;253;27555;-74
2021/07/13 00:26:56;;;;;;;2.97;2.77;;;;;;;;;;467986;254;27972;-74
2021/07/13 00:28:58;;;;;;;3.03;2.83;;;;;;;;;;467956;254;27583;-74
2021/07/13 00:31:00;;;;;;;3.37;3.07;;;;;;;;;;467975;254;27920;-74
2021/07/13 00:33:02;;;;;;;2.87;2.67;;;;;;;;;;467878;254;27540;-74
2021/07/13 00:35:04;;;;;;;3.30;3.10;;;;;;;;;;467942;253;28005;-74
2021/07/13 00:37:06;;;;;;;3.20;2.90;;;;;;;;;;467951;254;27454;-74
2021/07/13 00:39:08;;;;;;;3.27;3.07;;;;;;;;;;467869;254;27986;-74
2021/07/13 00:41:11;;;;;;;3.07;2.87;;;;;;;;;;467971;254;27557;-74
2021/07/13 00:43:13;;;;;;;3.13;2.93;;;;;;;;;;467983;253;27992;-74
2021/07/13 00:45:15;;;;;;;2.80;2.60;;;;;;;;;;467980;254;27576;-74
2021/07/13 00:47:17;;;;;;;3.17;2.97;;;;;;;;;;467964;254;27951;-74
2021/07/13 00:49:19;;;;;;;3.10;2.90;;;;;;;;;;467960;254;27583;-75
2021/07/13 00:51:21;;;;;;;3.13;2.93;;;;;;;;;;467955;254;27959;-74
2021/07/13 00:53:23;;;;;;;3.20;3.00;;;;;;;;;;467963;253;27556;-74
2021/07/13 00:55:25;;;;;;;2.83;2.63;;;;;;;;;;467940;254;27571;-75
2021/07/13 00:57:28;;;;;;;3.00;2.73;;;;;;;;;;467984;253;27497;-75
2021/07/13 00:59:30;;;;;;;3.20;3.00;;;;;;;;;;467997;253;28047;-74
2021/07/13 01:01:32;;;;;;;2.70;2.57;;;;;;;;;;467923;254;27485;-74
2021/07/13 01:03:34;;;;;;;3.20;2.90;;;;;;;;;;467942;253;27949;-75
2021/07/13 01:05:36;;;;;;;3.37;3.07;;;;;;;;;;467969;254;27569;-75
2021/07/13 01:07:38;;;;;;;3.10;2.90;;;;;;;;;;467970;254;28052;-74
2021/07/13 01:09:40;;;;;;;3.63;3.33;;;;;;;;;;467951;253;27599;-74
2021/07/13 01:11:46;;;;;;;3.70;3.40;;;;;;;;;;467915;254;27548;-75
2021/07/13 01:13:44;;;;;;;3.03;2.83;;;;;;;;;;467815;254;27524;-75
2021/07/13 01:15:47;;;;;;;2.70;2.50;;;;;;;;;;467930;254;27540;-75
2021/07/13 01:17:49;;;;;;;3.23;3.03;;;;;;;;;;467928;253;27572;-75
2021/07/13 01:19:51;;;;;;;3.53;3.23;;;;;;;;;;467947;253;27537;-74
2021/07/13 01:21:53;;;;;;;3.10;2.90;;;;;;;;;;467929;254;27484;-75
2021/07/13 01:23:55;;;;;;;3.23;3.00;;;;;;;;;;467909;254;27512;-74
2021/07/13 01:25:57;;;;;;;3.20;3.00;;;;;;;;;;467948;254;27472;-75
2021/07/13 01:27:59;;;;;;;3.70;3.40;;;;;;;;;;467957;253;27485;-75
2021/07/13 01:30:01;;;;;;;3.40;3.10;;;;;;;;;;467958;251;27452;-74
2021/07/13 01:32:03;;;;;;;3.20;3.00;;;;;;;;;;467885;254;27429;-74
2021/07/13 01:34:06;;;;;;;3.17;2.97;;;;;;;;;;467962;253;27545;-74
2021/07/13 01:36:08;;;;;;;3.23;3.03;;;;;;;;;;467931;254;28020;-75
2021/07/13 01:38:10;;;;;;;4.00;3.70;;;;;;;;;;467912;254;27501;-75
2021/07/13 01:40:12;;;;;;;3.57;3.27;;;;;;;;;;467955;254;27517;-75
2021/07/13 01:42:14;;;;;;;4.30;3.90;;;;;;;;;;467926;254;27552;-75
2021/07/13 01:44:16;;;;;;;4.10;3.80;;;;;;;;;;467952;254;27940;-74
2021/07/13 01:46:18;;;;;;;5.23;4.73;;;;;;;;;;467963;253;27598;-75
2021/07/13 01:48:20;;;;;;;3.90;3.60;;;;;;;;;;467949;254;27918;-75
2021/07/13 01:50:22;;;;;;;4.00;3.70;;;;;;;;;;467949;254;27460;-75
2021/07/13 01:52:25;;;;;;;4.07;3.70;;;;;;;;;;467928;253;27884;-74
2021/07/13 01:54:27;;;;;;;4.47;3.97;;;;;;;;;;467932;254;27560;-75
2021/07/13 01:56:29;;;;;;;4.30;3.90;;;;;;;;;;467931;250;28055;-75
2021/07/13 01:58:31;;;;;;;3.90;3.60;;;;;;;;;;467922;254;27508;-74
2021/07/13 02:00:33;;;;;;;3.67;3.37;;;;;;;;;;467954;253;29934;-74
2021/07/13 02:02:35;;;;;;;3.87;3.57;;;;;;;;;;467963;254;27582;-75
2021/07/13 02:04:37;;;;;;;4.03;3.73;;;;;;;;;;467945;253;28066;-74
2021/07/13 02:06:39;;;;;;;4.20;3.80;;;;;;;;;;467938;253;27585;-75
2021/07/13 02:08:42;;;;;;;3.97;3.67;;;;;;;;;;467915;254;27943;-75
2021/07/13 02:10:44;;;;;;;4.37;3.97;;;;;;;;;;467947;253;27483;-74
2021/07/13 02:12:46;;;;;;;4.77;4.37;;;;;;;;;;467927;254;27545;-75
2021/07/13 02:14:48;;;;;;;4.00;3.70;;;;;;;;;;467925;254;27484;-74
2021/07/13 02:16:50;;;;;;;4.60;4.20;;;;;;;;;;467921;254;27499;-74
2021/07/13 02:18:52;;;;;;;3.87;3.53;;;;;;;;;;467922;253;27520;-75
2021/07/13 02:20:54;;;;;;;3.80;3.50;;;;;;;;;;467920;253;27496;-74
2021/07/13 02:22:56;;;;;;;3.47;3.17;;;;;;;;;;467939;254;27499;-74
2021/07/13 02:24:58;;;;;;;4.27;3.87;;;;;;;;;;467930;253;27581;-74
2021/07/13 02:27:01;;;;;;;4.17;3.80;;;;;;;;;;467942;253;27492;-74
2021/07/13 02:29:03;;;;;;;4.70;3.77;;;;;;;;;;467903;254;27599;-74
2021/07/13 02:31:05;;;;;;;3.93;3.60;;;;;;;;;;467915;254;27555;-74
2021/07/13 02:33:07;;;;;;;3.60;3.30;;;;;;;;;;467931;254;27536;-74
2021/07/13 02:35:09;;;;;;;4.70;4.30;;;;;;;;;;467925;253;27560;-74
2021/07/13 02:37:12;;;;;;;4.73;4.33;;;;;;;;;;467959;254;27998;-74
2021/07/13 02:39:13;;;;;;;5.07;4.57;;;;;;;;;;467899;253;27540;-74
2021/07/13 02:41:15;;;;;;;5.63;5.13;;;;;;;;;;467953;253;28018;-74
2021/07/13 02:43:17;;;;;;;4.97;4.47;;;;;;;;;;467914;254;27463;-74
2021/07/13 02:45:20;;;;;;;4.83;4.43;;;;;;;;;;467925;254;28002;-75
2021/07/13 02:47:22;;;;;;;5.27;4.23;;;;;;;;;;467929;253;27465;-74
2021/07/13 02:49:24;;;;;;;3.73;3.43;;;;;;;;;;467912;254;27955;-74
2021/07/13 02:51:26;;;;;;;3.83;3.53;;;;;;;;;;467944;254;27577;-74
2021/07/13 02:53:29;;;;;;;4.30;4.00;;;;;;;;;;467939;254;28047;-74
2021/07/13 02:55:30;;;;;;;4.30;3.90;;;;;;;;;;467936;253;27464;-75
2021/07/13 02:57:32;;;;;;;4.90;4.50;;;;;;;;;;467927;253;27901;-74
2021/07/13 02:59:34;;;;;;;5.10;4.60;;;;;;;;;;467905;254;27448;-74
2021/07/13 03:01:36;;;;;;;5.03;4.53;;;;;;;;;;467944;254;27536;-74
2021/07/13 03:03:41;;;;;;;3.80;3.50;;;;;;;;;;467952;254;27484;-74
2021/07/13 03:05:41;;;;;;;4.10;3.80;;;;;;;;;;467880;254;27495;-74
2021/07/13 03:07:43;;;;;;;4.57;4.17;;;;;;;;;;467947;253;27544;-74
2021/07/13 03:09:45;;;;;;;4.80;4.40;;;;;;;;;;467972;253;27577;-74
2021/07/13 03:11:47;;;;;;;4.00;3.70;;;;;;;;;;467964;250;27492;-75
2021/07/13 03:13:49;;;;;;;4.40;4.00;;;;;;;;;;467973;253;27480;-74
2021/07/13 03:15:51;;;;;;;4.80;4.40;;;;;;;;;;467959;254;27580;-74
2021/07/13 03:17:53;;;;;;;4.30;3.90;;;;;;;;;;467741;254;27476;-75
2021/07/13 03:19:55;;;;;;;3.93;3.63;;;;;;;;;;467930;254;27567;-75
2021/07/13 03:21:58;;;;;;;4.17;3.60;;;;;;;;;;467928;254;27577;-74
2021/07/13 03:24:00;;;;;;;3.67;3.37;;;;;;;;;;467906;254;27663;-75
2021/07/13 03:26:02;;;;;;;3.97;3.67;;;;;;;;;;467906;254;27486;-75
2021/07/13 03:28:04;;;;;;;3.40;3.20;;;;;;;;;;467915;254;27483;-75
2021/07/13 03:30:06;;;;;;;3.63;3.40;;;;;;;;;;467916;254;27597;-74
2021/07/13 03:32:08;;;;;;;3.83;3.50;;;;;;;;;;467943;254;27496;-75
2021/07/13 03:34:10;;;;;;;4.17;3.43;;;;;;;;;;467906;254;27499;-74
2021/07/13 03:36:12;;;;;;;3.80;3.47;;;;;;;;;;467937;254;27508;-74
2021/07/13 03:38:15;;;;;;;4.13;3.50;;;;;;;;;;467934;254;27480;-75
2021/07/13 03:40:17;;;;;;;4.00;3.70;;;;;;;;;;467928;253;27492;-74
2021/07/13 03:42:19;;;;;;;3.50;3.20;;;;;;;;;;467954;253;27486;-75
2021/07/13 03:44:21;;;;;;;3.97;3.67;;;;;;;;;;467898;254;27496;-74
2021/07/13 03:46:24;;;;;;;3.73;3.43;;;;;;;;;;467903;253;27480;-75
2021/07/13 03:48:25;;;;;;;3.30;3.10;;;;;;;;;;467898;254;27460;-75
2021/07/13 03:50:27;;;;;;;3.17;2.97;;;;;;;;;;467932;253;27444;-75
2021/07/13 03:52:29;;;;;;;3.20;3.00;;;;;;;;;;467946;254;27511;-74
2021/07/13 03:54:31;;;;;;;4.17;3.87;;;;;;;;;;467895;254;27445;-74
2021/07/13 03:56:34;;;;;;;3.87;3.57;;;;;;;;;;467932;254;27577;-74
2021/07/13 03:58:36;;;;;;;4.37;3.97;;;;;;;;;;467902;254;27914;-74
2021/07/13 04:00:38;;;;;;;3.80;3.50;;;;;;;;;;467910;254;27450;-75
2021/07/13 04:02:40;;;;;;;3.63;3.33;;;;;;;;;;467919;253;28102;-75
2021/07/13 04:04:42;;;;;;;3.67;3.37;;;;;;;;;;467896;254;27460;-74
2021/07/13 04:06:44;;;;;;;3.63;3.33;;;;;;;;;;467800;250;27919;-74
2021/07/13 04:08:46;;;;;;;3.70;3.40;;;;;;;;;;467792;250;27566;-74
2021/07/13 04:10:48;;;;;;;3.50;3.20;;;;;;;;;;467797;254;28034;-74
2021/07/13 04:12:50;;;;;;;3.77;3.47;;;;;;;;;;467832;254;27544;-74
2021/07/13 04:14:53;;;;;;;4.00;3.70;;;;;;;;;;467885;254;27976;-75
2021/07/13 04:16:55;;;;;;;4.03;3.73;;;;;;;;;;467860;254;27452;-75
2021/07/13 04:18:57;;;;;;;3.97;3.70;;;;;;;;;;467872;254;28048;-74
2021/07/13 04:20:59;;;;;;;3.30;3.10;;;;;;;;;;467934;253;27491;-74
2021/07/13 04:23:01;;;;;;;3.40;3.20;;;;;;;;;;467909;254;28048;-74
2021/07/13 04:25:03;;;;;;;3.30;3.10;;;;;;;;;;467980;252;27820;-74
2021/07/13 04:27:05;;;;;;;3.93;3.63;;;;;;;;;;467986;253;27975;-74
2021/07/13 04:29:07;;;;;;;4.27;3.97;;;;;;;;;;467963;254;27500;-75
2021/07/13 04:31:09;;;;;;;3.77;3.47;;;;;;;;;;467978;254;27975;-74
2021/07/13 04:33:12;;;;;;;3.60;3.30;;;;;;;;;;467903;254;27496;-74
2021/07/13 04:35:14;;;;;;;3.90;3.60;;;;;;;;;;467977;253;28054;-74
2021/07/13 04:37:16;;;;;;;4.27;3.97;;;;;;;;;;467970;253;27503;-74
2021/07/13 04:39:18;;;;;;;4.00;3.70;;;;;;;;;;467956;254;27962;-74
2021/07/13 04:41:20;;;;;;;4.07;3.77;;;;;;;;;;467917;254;27524;-74
2021/07/13 04:43:22;;;;;;;4.80;3.83;;;;;;;;;;467943;253;27966;-75
2021/07/13 04:45:24;;;;;;;4.27;3.97;;;;;;;;;;467942;254;27488;-74
2021/07/13 04:47:26;;;;;;;4.40;4.10;;;;;;;;;;467923;254;28040;-74
2021/07/13 04:49:31;;;;;;;3.87;3.67;;;;;;;;;;467933;253;27495;-74
2021/07/13 04:51:31;;;;;;;3.90;3.70;;;;;;;;;;467865;254;28079;-74
2021/07/13 04:53:34;;;;;;;3.37;3.17;;;;;;;;;;467939;254;27567;-75
2021/07/13 04:55:35;;;;;;;4.60;4.20;;;;;;;;;;467922;253;27972;-74
2021/07/13 04:57:37;;;;;;;4.37;4.07;;;;;;;;;;467913;253;27569;-75
2021/07/13 04:59:39;;;;;;;3.87;3.57;;;;;;;;;;467911;254;28039;-74
2021/07/13 05:01:41;;;;;;;4.27;3.97;;;;;;;;;;467876;254;27624;-74
2021/07/13 05:03:43;;;;;;;4.00;3.70;;;;;;;;;;467909;254;28010;-74
2021/07/13 05:05:45;;;;;;;3.80;3.50;;;;;;;;;;467939;254;27456;-75
2021/07/13 05:07:48;;;;;;;3.70;3.40;;;;;;;;;;467919;254;27995;-74
2021/07/13 05:09:50;;;;;;;3.43;3.23;;;;;;;;;;467900;253;27584;-75
2021/07/13 05:11:52;;;;;;;3.63;3.40;;;;;;;;;;467906;254;27963;-75
2021/07/13 05:13:54;;;;;;;3.53;3.33;;;;;;;;;;467930;254;27452;-75
2021/07/13 05:15:56;;;;;;;3.87;3.57;;;;;;;;;;467923;253;27971;-75
2021/07/13 05:17:58;;;;;;;4.17;3.87;;;;;;;;;;467930;254;27457;-75
2021/07/13 05:20:00;;;;;;;4.23;3.80;;;;;;;;;;467936;253;27951;-75
2021/07/13 05:22:05;;;;;;;4.03;3.73;;;;;;;;;;467930;254;27448;-75
2021/07/13 05:24:04;;;;;;;4.50;4.17;;;;;;;;;;467887;254;28007;-74
2021/07/13 05:26:07;;;;;;;3.73;3.43;;;;;;;;;;467914;254;27448;-75
2021/07/13 05:28:12;;;;;;;3.90;3.60;;;;;;;;;;467947;253;27888;-74
2021/07/13 05:30:13;;;;;;;3.87;3.57;;;;;;;;;;467923;254;28043;-74
2021/07/13 05:32:16;;;;;;;3.90;3.60;;;;;;;;;;467939;254;27491;-75
2021/07/13 05:34:18;;;;;;;3.93;3.63;;;;;;;;;;467945;253;28101;-75
2021/07/13 05:36:20;;;;;;;4.20;3.90;;;;;;;;;;467901;254;27569;-74
2021/07/13 05:38:22;;;;;;;3.90;3.57;;;;;;;;;;467948;253;28075;-74
2021/07/13 05:40:24;;;;;;;4.27;3.97;;;;;;;;;;467923;254;27564;-75
2021/07/13 05:42:26;;;;;;;4.13;3.83;;;;;;;;;;467886;254;27572;-74
2021/07/13 05:44:28;;;;;;;4.90;4.50;;;;;;;;;;467862;254;27507;-74
2021/07/13 05:46:30;;;;;;;5.00;4.60;;;;;;;;;;467875;254;27488;-74
2021/07/13 05:48:33;;;;;;;4.50;4.10;;;;;;;;;;467852;254;27545;-75
2021/07/13 05:50:35;;;;;;;7.60;3.63;;;;;;;;;;467914;254;27464;-74
2021/07/13 05:52:37;;;;;;;3.93;3.63;;;;;;;;;;467928;254;27486;-74
2021/07/13 05:54:39;;;;;;;4.90;4.50;;;;;;;;;;467918;254;27488;-75
2021/07/13 05:56:41;;;;;;;4.40;4.10;;;;;;;;;;467918;254;27444;-75
2021/07/13 05:58:43;;;;;;;4.33;3.93;;;;;;;;;;467964;253;27554;-75
2021/07/13 06:00:45;;;;;;;4.30;4.00;;;;;;;;;;467952;254;27461;-75
2021/07/13 06:02:47;;;;;;;4.37;4.07;;;;;;;;;;467948;254;27927;-75
2021/07/13 06:04:49;;;;;;;4.27;3.97;;;;;;;;;;467931;254;27550;-75
2021/07/13 06:06:52;;;;;;;4.63;4.23;;;;;;;;;;467956;253;27912;-75
2021/07/13 06:08:54;;;;;;;3.87;3.57;;;;;;;;;;467922;254;27493;-75
2021/07/13 06:10:56;;;;;;;4.30;3.90;;;;;;;;;;467929;253;28023;-75
2021/07/13 06:12:58;;;;;;;3.90;3.60;;;;;;;;;;467961;254;27453;-75
2021/07/13 06:15:00;;;;;;;3.33;3.13;;;;;;;;;;467931;254;28098;-75
2021/07/13 06:17:02;;;;;;;4.33;3.73;;;;;;;;;;467929;253;27460;-75
2021/07/13 06:19:04;;;;;;;4.30;4.00;;;;;;;;;;467908;254;28683;-75
2021/07/13 06:21:09;;;;;;;5.53;5.07;;;;;;;;;;467918;254;27465;-75
2021/07/13 06:23:08;;;;;;;4.47;4.17;;;;;;;;;;467813;254;28054;-75
2021/07/13 06:25:11;;;;;;;5.00;4.53;;;;;;;;;;467915;253;27828;-75
2021/07/13 06:27:13;;;;;;;4.87;4.47;;;;;;;;;;467926;254;28075;-74
2021/07/13 06:29:15;;;;;;;4.37;4.07;;;;;;;;;;467903;254;27501;-74
2021/07/13 06:31:17;;;;;;;5.20;4.80;;;;;;;;;;467925;254;27978;-75
2021/07/13 06:33:19;;;;;;;3.83;3.63;;;;;;;;;;467916;254;27585;-74
2021/07/13 06:35:21;;;;;;;4.20;3.90;;;;;;;;;;467930;253;28030;-75
2021/07/13 06:37:23;;;;;;;3.90;3.60;;;;;;;;;;467906;250;27583;-74
2021/07/13 06:39:25;;;;;;;4.60;4.20;;;;;;;;;;467913;253;28085;-75
2021/07/13 06:41:27;;;;;;;5.30;4.53;;;;;;;;;;467917;253;27517;-75
2021/07/13 06:43:30;;;;;;;4.27;3.97;;;;;;;;;;467903;254;28001;-75
2021/07/13 06:45:32;;;;;;;6.57;5.00;;;;;;;;;;467920;254;27572;-75
2021/07/13 06:47:34;;;;;;;3.80;3.50;;;;;;;;;;467930;254;27979;-75
2021/07/13 06:49:36;;;;;;;4.03;3.73;;;;;;;;;;467946;253;27492;-75
2021/07/13 06:51:38;;;;;;;4.70;4.30;;;;;;;;;;467913;254;27978;-75
2021/07/13 06:53:40;;;;;;;5.10;4.70;;;;;;;;;;474764;245;27516;-75
2021/07/13 06:55:42;;;;;;;3.97;3.67;;;;;;;;;;475818;248;27803;-75
2021/07/13 06:57:44;;;;;;;4.83;4.40;;;;;;;;;;468605;253;27950;-75
2021/07/13 06:59:46;;;;;;;4.50;4.20;;;;;;;;;;468414;252;28981;-74
2021/07/13 07:01:49;;;;;;;4.80;4.50;;;;;;;;;;468393;253;27675;-74
2021/07/13 07:03:51;;;;;;;4.60;4.20;;;;;;;;;;468487;253;28089;-75
2021/07/13 07:05:53;;;;;;;4.50;4.10;;;;;;;;;;468511;253;27659;-75
2021/07/13 07:07:55;;;;;;;4.10;3.80;;;;;;;;;;468408;253;28080;-75
2021/07/13 07:09:57;;;;;;;4.20;3.80;;;;;;;;;;467834;253;27480;-74
2021/07/13 07:11:59;;;;;;;4.23;3.93;;;;;;;;;;467918;253;27864;-74
2021/07/13 07:14:01;;;;;;;3.73;3.50;;;;;;;;;;467869;253;27509;-74
2021/07/13 07:16:03;;;;;;;3.63;3.27;;;;;;;;;;467734;253;27963;-74
2021/07/13 07:18:06;;;;;;;3.67;3.40;;;;;;;;;;469120;249;27943;-75
2021/07/13 07:20:08;;;;;;;3.90;3.60;;;;;;;;;;468166;253;28094;-75
2021/07/13 07:22:10;;;;;;;3.10;2.90;;;;;;;;;;468249;253;27688;-74
2021/07/13 07:24:12;;;;;;;2.87;2.63;;;;;;;;;;467998;253;28114;-74
2021/07/13 07:26:14;;;;;;;3.57;3.03;;;;;;;;;;468434;253;27720;-74
2021/07/13 07:28:16;;;;;;;2.87;2.70;;;;;;;;;;468385;253;28270;-76
2021/07/13 07:30:18;;;;;;;3.17;2.97;;;;;;;;;;468739;253;27983;-75
2021/07/13 07:32:20;;;;;;;3.03;2.87;;;;;;;;;;468827;254;28149;-74
2021/07/13 07:34:22;;;;;;;3.00;2.80;;;;;;;;;;468835;253;27685;-74
2021/07/13 07:36:26;;;;;;;3.20;3.00;;;;;;;;;;468832;254;28049;-75
2021/07/13 07:38:27;;;;;;;3.10;2.90;;;;;;;;;;468831;252;27678;-75
2021/07/13 07:40:29;;;;;;;2.87;2.67;;;;;;;;;;468811;254;28077;-75
2021/07/13 07:42:34;;;;;;;2.50;2.40;;;;;;;;;;468799;253;27601;-75
2021/07/13 07:44:33;;;;;;;2.23;2.13;;;;;;;;;;468739;254;28157;-75
2021/07/13 07:46:41;;;;;;;2.97;2.77;;;;;;;;;;468820;254;27570;-75
2021/07/13 07:48:37;;;;;;;2.40;2.30;;;;;;;;;;468968;252;28073;-74
2021/07/13 07:50:39;;;;;;;2.47;2.37;;;;;;;;;;468816;253;27590;-75
2021/07/13 07:52:42;;;;;;;2.70;2.50;;;;;;;;;;468808;253;28882;-75
2021/07/13 07:54:44;;;;;;;2.33;2.23;;;;;;;;;;468835;253;27572;-75
2021/07/13 07:56:46;;;;;;;2.30;2.20;;;;;;;;;;468839;253;28078;-75
2021/07/13 07:58:48;;;;;;;2.33;2.23;;;;;;;;;;468826;253;27686;-75
2021/07/13 08:00:50;;;;;;;2.57;2.47;;;;;;;;;;468832;253;28079;-75
2021/07/13 08:02:52;;;;;;;2.70;2.50;;;;;;;;;;468838;253;27546;-75
2021/07/13 08:04:54;;;;;;;3.00;2.40;;;;;;;;;;468699;253;28067;-75
2021/07/13 08:06:56;;;;;;;2.30;2.10;;;;;;;;;;468741;253;27526;-75
2021/07/13 08:08:58;;;;;;;2.30;2.20;;;;;;;;;;468761;253;28085;-75
2021/07/13 08:11:01;;;;;;;2.20;2.10;;;;;;;;;;468829;251;27612;-75
2021/07/13 08:13:04;;;;;;;2.50;1.90;;;;;;;;;;468837;253;28079;-75
2021/07/13 08:15:05;;;;;;;1.80;1.70;;;;;;;;;;468825;252;27563;-75
2021/07/13 08:17:07;;;;;;;2.03;1.93;;;;;;;;;;468799;253;28004;-75
2021/07/13 08:19:09;;;;;;;2.00;1.90;;;;;;;;;;468837;253;27622;-75
2021/07/13 08:21:11;;;;;;;1.93;1.83;;;;;;;;;;468826;249;28092;-75
2021/07/13 08:23:13;;;;;;;2.00;1.90;;;;;;;;;;468777;253;27602;-75
2021/07/13 08:25:15;;;;;;;1.90;1.80;;;;;;;;;;468830;253;28041;-75
2021/07/13 08:27:18;;;;;;;1.97;1.87;;;;;;;;;;468834;251;27588;-75
2021/07/13 08:29:20;;;;;;;2.10;1.93;;;;;;;;;;468841;253;28150;-75
2021/07/13 08:31:22;;;;;;;2.77;2.47;;;;;;;;;;468829;253;27939;-75
2021/07/13 08:33:24;;;;;;;2.10;2.00;;;;;;;;;;468811;253;28170;-75
2021/07/13 08:35:26;;;;;;;2.67;2.40;;;;;;;;;;468830;253;27597;-75
2021/07/13 08:37:32;;;;;;;2.13;2.03;;;;;;;;;;468812;253;28057;-75
2021/07/13 08:39:30;;;;;;;2.30;2.20;;;;;;;;;;468916;252;27577;-75
2021/07/13 08:41:32;;;;;;;2.00;1.90;;;;;;;;;;468831;253;28122;-75
2021/07/13 08:43:34;;;;;;;1.83;1.73;;;;;;;;;;468818;253;27635;-75
2021/07/13 08:45:37;;;;;;;2.00;1.90;;;;;;;;;;468821;253;28062;-75
2021/07/13 08:47:39;;;;;;;2.43;2.20;;;;;;;;;;468829;252;27570;-75
2021/07/13 08:49:41;;;;;;;2.10;2.00;;;;;;;;;;468845;251;28174;-75
2021/07/13 08:51:43;;;;;;;2.27;2.17;;;;;;;;;;468816;253;27647;-75
2021/07/13 08:53:45;;;;;;;1.97;1.87;;;;;;;;;;468831;253;28100;-75
2021/07/13 08:55:47;;;;;;;2.17;2.07;;;;;;;;;;468829;253;27556;-75
2021/07/13 08:57:49;;;;;;;1.90;1.80;;;;;;;;;;468636;253;28203;-75
2021/07/13 08:59:51;;;;;;;2.00;1.90;;;;;;;;;;468707;253;27572;-75
2021/07/13 09:01:53;;;;;;;1.80;1.70;;;;;;;;;;468809;253;28034;-75
2021/07/13 09:03:56;;;;;;;2.17;2.07;;;;;;;;;;468803;253;27543;-75
2021/07/13 09:05:59;;;;;;;2.13;2.00;;;;;;;;;;468787;253;28106;-75
2021/07/13 09:08:00;;;;;;;2.00;1.90;;;;;;;;;;468839;252;28083;-75
2021/07/13 09:10:02;;;;;;;2.30;2.10;;;;;;;;;;468803;253;27560;-75
2021/07/13 09:12:04;;;;;;;2.70;2.50;;;;;;;;;;471498;251;28161;-75
2021/07/13 09:14:06;;;;;;;2.23;2.13;;;;;;;;;;474314;249;27520;-75
2021/07/13 09:16:08;;;;;;;3.03;2.83;;;;;;;;;;469220;250;28164;-74
2021/07/13 09:18:10;;;;;;;2.40;2.30;;;;;;;;;;468636;253;27606;-75
2021/07/13 09:20:13;;;;;;;2.50;2.30;;;;;;;;;;468483;253;28089;-75
2021/07/13 09:22:15;;;;;;;2.40;2.27;;;;;;;;;;468653;253;28012;-75
2021/07/13 09:24:20;;;;;;;2.40;2.30;;;;;;;;;;468810;252;27548;-75
2021/07/13 09:26:19;;;;;;;2.60;2.40;;;;;;;;;;468881;252;27576;-75
2021/07/13 09:28:21;;;;;;;2.00;1.90;;;;;;;;;;468826;253;27602;-75
2021/07/13 09:30:26;;;;;;;2.37;2.27;;;;;;;;;;468796;253;27606;-75
2021/07/13 09:32:25;;;;;;;2.60;2.40;;;;;;;;;;468718;253;27588;-75
2021/07/13 09:34:27;;;;;;;2.37;2.27;;;;;;;;;;468809;253;27579;-75
2021/07/13 09:36:29;;;;;;;2.30;2.20;;;;;;;;;;468816;253;27606;-75
2021/07/13 09:38:32;;;;;;;2.07;1.97;;;;;;;;;;468835;253;27601;-75
2021/07/13 09:40:34;;;;;;;1.80;1.70;;;;;;;;;;468816;253;27585;-75
2021/07/13 09:42:36;;;;;;;1.83;1.73;;;;;;;;;;468782;253;27578;-75
2021/07/13 09:44:41;;;;;;;2.13;2.03;;;;;;;;;;468852;253;27694;-75
2021/07/13 09:46:41;;;;;;;2.03;1.93;;;;;;;;;;468754;252;27711;-75
2021/07/13 09:48:42;;;;;;;1.90;1.70;;;;;;;;;;468603;252;27709;-75
2021/07/13 09:50:45;;;;;;;2.00;1.90;;;;;;;;;;468835;253;27671;-75
2021/07/13 09:52:46;;;;;;;1.43;1.40;;;;;;;;;;468804;251;27583;-75
2021/07/13 09:54:49;;;;;;;1.53;1.50;;;;;;;;;;468826;253;27582;-75
2021/07/13 09:56:51;;;;;;;1.60;1.50;;;;;;;;;;468856;253;27615;-75
2021/07/13 09:58:53;;;;;;;1.50;1.40;;;;;;;;;;468799;253;27682;-75
2021/07/13 10:00:57;;;;;;;1.40;1.40;;;;;;;;;;468803;253;27588;-75
2021/07/13 10:02:57;;;;;;;1.20;1.20;;;;;;;;;;468906;250;27655;-75
2021/07/13 10:04:59;;;;;;;1.37;1.10;;;;;;;;;;468826;253;27593;-75
2021/07/13 10:07:02;;;;;;;0.90;0.90;;;;;;;;;;468826;253;27598;-75
2021/07/13 10:09:11;;;;;;;1.03;1.03;;;;;;;;;;468801;252;27721;-75
2021/07/13 10:11:05;;;;;;;1.10;1.10;;;;;;;;;;469015;250;27579;-75
2021/07/13 10:13:08;;;;;;;1.03;1.03;;;;;;;;;;468827;253;27584;-75
2021/07/13 10:15:10;;;;;;;1.00;1.00;;;;;;;;;;468820;252;27564;-75
2021/07/13 10:17:12;;;;;;;0.97;0.97;;;;;;;;;;468797;253;27679;-75
2021/07/13 10:19:14;;;;;;;0.90;0.90;;;;;;;;;;468820;249;27544;-75
2021/07/13 10:21:16;;;;;;;1.57;0.90;;;;;;;;;;468826;253;27642;-75
2021/07/13 10:23:18;;;;;;;0.93;0.93;;;;;;;;;;468813;253;27547;-75
2021/07/13 10:25:20;;;;;;;0.90;0.90;;;;;;;;;;468846;253;27551;-74
2021/07/13 10:27:22;;;;;;;1.00;1.00;;;;;;;;;;468851;253;27556;-75
2021/07/13 10:29:24;;;;;;;0.90;0.90;;;;;;;;;;468830;253;27552;-75
2021/07/13 10:31:27;;;;;;;0.80;0.80;;;;;;;;;;468846;253;27543;-74
2021/07/13 10:33:29;;;;;;;1.00;1.00;;;;;;;;;;468824;253;27542;-75
2021/07/13 10:35:31;;;;;;;0.80;0.80;;;;;;;;;;468797;253;27542;-75
2021/07/13 10:37:33;;;;;;;1.00;1.00;;;;;;;;;;468814;253;27551;-75
2021/07/13 10:39:35;;;;;;;0.90;0.90;;;;;;;;;;468830;253;27555;-75
2021/07/13 10:41:37;;;;;;;0.97;0.97;;;;;;;;;;468797;253;29528;-75
2021/07/13 10:43:39;;;;;;;0.80;0.80;;;;;;;;;;468800;253;27595;-75
2021/07/13 10:45:46;;;;;;;0.80;0.80;;;;;;;;;;468828;253;27596;-75
2021/07/13 10:47:46;;;;;;;0.80;0.80;;;;;;;;;;468842;251;28111;-75
2021/07/13 10:49:49;;;;;;;0.90;0.90;;;;;;;;;;468767;253;27663;-75
2021/07/13 10:51:51;;;;;;;0.80;0.80;;;;;;;;;;468864;253;27991;-74
2021/07/13 10:53:53;;;;;;;0.80;0.80;;;;;;;;;;468825;253;27596;-75
2021/07/13 10:55:55;;;;;;;1.10;1.10;;;;;;;;;;468817;253;28002;-75
2021/07/13 10:57:57;;;;;;;0.97;0.97;;;;;;;;;;468807;253;27532;-75
2021/07/13 10:59:59;;;;;;;0.80;0.80;;;;;;;;;;468838;253;28096;-74
2021/07/13 11:02:01;;;;;;;0.90;0.90;;;;;;;;;;468807;253;27632;-75
2021/07/13 11:04:03;;;;;;;1.00;1.00;;;;;;;;;;468756;253;28101;-75
2021/07/13 11:06:05;;;;;;;0.80;0.80;;;;;;;;;;468816;253;27540;-75
2021/07/13 11:08:08;;;;;;;0.90;0.90;;;;;;;;;;468827;253;28107;-75
2021/07/13 11:10:10;;;;;;;0.80;0.80;;;;;;;;;;468827;253;27532;-75
2021/07/13 11:12:12;;;;;;;0.80;0.80;;;;;;;;;;468822;253;28081;-75
2021/07/13 11:14:15;;;;;;;0.80;0.80;;;;;;;;;;468828;253;27632;-75
2021/07/13 11:16:16;;;;;;;0.80;0.80;;;;;;;;;;468833;252;28798;-74
2021/07/13 11:18:18;;;;;;;1.47;0.70;;;;;;;;;;468782;254;27660;-74
2021/07/13 11:20:20;;;;;;;1.00;1.00;;;;;;;;;;468808;253;28278;-75
2021/07/13 11:22:22;;;;;;;0.83;0.83;;;;;;;;;;468812;253;27654;-75
2021/07/13 11:24:24;;;;;;;0.80;0.80;;;;;;;;;;468818;253;28160;-75
2021/07/13 11:26:27;;;;;;;1.00;0.90;;;;;;;;;;468787;254;27774;-75
2021/07/13 11:28:29;;;;;;;0.83;0.83;;;;;;;;;;468588;253;28154;-75
2021/07/13 11:30:31;;;;;;;0.97;0.97;;;;;;;;;;468484;253;27592;-75
2021/07/13 11:32:33;;;;;;;0.80;0.80;;;;;;;;;;468830;253;28087;-75
2021/07/13 11:34:40;;;;;;;0.80;0.80;;;;;;;;;;468853;253;27592;-75
2021/07/13 11:36:40;;;;;;;0.77;0.77;;;;;;;;;;468892;250;27564;-74
2021/07/13 11:38:42;;;;;;;0.90;0.90;;;;;;;;;;468841;253;27583;-74
2021/07/13 11:40:44;;;;;;;1.57;1.10;;;;;;;;;;468826;252;27539;-74
2021/07/13 11:42:46;;;;;;;0.80;0.80;;;;;;;;;;468826;253;27655;-74
2021/07/13 11:44:50;;;;;;;2.40;0.90;;;;;;;;;;468868;253;27667;-74
2021/07/13 11:46:51;;;;;;;0.80;0.80;;;;;;;;;;468826;252;28990;-75
2021/07/13 11:48:54;;;;;;;0.80;0.80;;;;;;;;;;468834;253;27578;-74
2021/07/13 11:50:55;;;;;;;0.87;0.87;;;;;;;;;;468781;252;28144;-75
2021/07/13 11:52:58;;;;;;;0.80;0.80;;;;;;;;;;468828;249;27666;-75
2021/07/13 11:55:00;;;;;;;1.00;1.00;;;;;;;;;;468830;252;27709;-75
2021/07/13 11:57:01;;;;;;;0.90;0.90;;;;;;;;;;468835;252;27675;-75
2021/07/13 11:59:03;;;;;;;0.83;0.83;;;;;;;;;;468839;253;28165;-75
2021/07/13 12:01:06;;;;;;;1.10;1.00;;;;;;;;;;468819;253;27655;-75
2021/07/13 12:03:08;;;;;;;1.20;1.10;;;;;;;;;;468818;253;28145;-75
2021/07/13 12:05:10;;;;;;;0.90;0.90;;;;;;;;;;468701;253;27657;-75
2021/07/13 12:07:12;;;;;;;1.00;1.00;;;;;;;;;;468701;253;28087;-75
2021/07/13 12:09:14;;;;;;;0.80;0.80;;;;;;;;;;468672;253;27610;-75
2021/07/13 12:11:16;;;;;;;0.90;0.90;;;;;;;;;;468716;253;28067;-74